Time;durP1;ratioP1;P1;durP2;ratioP2;P2;SDS_P1;SDS_P2;PMS_P1;PMS_P2;Temp;Humidity;BMP_temperature;BMP_pressure;BME280_temperature;BME280_humidity;BME280_pressure;Samples;Min_cycle;Max_cycle;Signal;HPM_P1;HPM_P2
2021/08/25 00:02:11;;;;;;;6.43;2.92;;;16.90;77.50;;;;;;5095035;28;20059;-89
2021/08/25 00:04:41;;;;;;;6.28;2.90;;;16.90;77.90;;;;;;5112866;28;20031;-90
2021/08/25 00:07:07;;;;;;;5.43;2.83;;;16.80;78.10;;;;;;5094433;28;20397;-91
2021/08/25 00:09:37;;;;;;;7.50;2.97;;;16.80;77.50;;;;;;5095414;28;20027;-91
2021/08/25 00:12:04;;;;;;;14.45;3.33;;;16.80;77.10;;;;;;5095277;28;20128;-90
2021/08/25 00:14:30;;;;;;;5.57;2.25;;;16.80;77.30;;;;;;5095539;28;20027;-93
2021/08/25 00:16:56;;;;;;;7.88;2.92;;;16.80;78.10;;;;;;5113863;28;20035;-92
2021/08/25 00:19:22;;;;;;;8.98;2.90;;;16.70;77.80;;;;;;5090874;28;20135;-91
2021/08/25 00:21:48;;;;;;;7.30;2.92;;;16.60;78.10;;;;;;5092977;28;20404;-92
2021/08/25 00:24:13;;;;;;;9.07;3.17;;;16.70;78.50;;;;;;5095710;28;20024;-91
2021/08/25 00:26:39;;;;;;;7.28;3.10;;;16.60;77.70;;;;;;5096271;28;20031;-89
2021/08/25 00:29:04;;;;;;;6.30;2.67;;;16.60;77.90;;;;;;5097680;28;20027;-89
2021/08/25 00:31:30;;;;;;;6.15;2.65;;;16.60;78.10;;;;;;5093258;28;20032;-92
2021/08/25 00:33:58;;;;;;;6.13;2.55;;;16.50;77.90;;;;;;5097237;28;20028;-91
2021/08/25 00:36:23;;;;;;;7.18;2.97;;;16.50;78.60;;;;;;5095905;28;20034;-91
2021/08/25 00:38:49;;;;;;;6.72;2.92;;;16.50;78.30;;;;;;5097188;28;20040;-92
2021/08/25 00:41:14;;;;;;;8.07;2.70;;;16.50;78.60;;;;;;5092243;28;20024;-89
2021/08/25 00:43:40;;;;;;;5.65;2.72;;;16.50;78.40;;;;;;5095875;28;20113;-88
2021/08/25 00:46:06;;;;;;;7.18;2.85;;;16.40;78.90;;;;;;5094757;28;20055;-91
2021/08/25 00:48:32;;;;;;;8.15;3.28;;;16.40;78.50;;;;;;5095175;28;20058;-88
2021/08/25 00:50:58;;;;;;;7.80;3.00;;;16.40;78.80;;;;;;5095387;28;20024;-89
2021/08/25 00:53:24;;;;;;;7.55;2.85;;;16.40;79.50;;;;;;5096322;28;20020;-89
2021/08/25 00:55:54;;;;;;;8.45;3.05;;;16.40;78.90;;;;;;5094588;28;20103;-89
2021/08/25 00:58:20;;;;;;;7.63;3.30;;;16.40;78.70;;;;;;5094563;28;20035;-90
2021/08/25 01:00:55;;;;;;;10.85;2.90;;;16.40;80.40;;;;;;5094399;28;20020;-88
2021/08/25 01:03:32;;;;;;;9.77;3.00;;;16.40;78.90;;;;;;5094448;28;20024;-90
2021/08/25 01:05:58;;;;;;;6.22;3.00;;;16.40;79.20;;;;;;5092978;28;20036;-89
2021/08/25 01:08:25;;;;;;;8.57;2.97;;;16.40;78.70;;;;;;5094739;28;20036;-89
2021/08/25 01:10:51;;;;;;;9.40;3.38;;;16.40;78.50;;;;;;5094037;28;20020;-89
2021/08/25 01:13:17;;;;;;;6.07;2.80;;;16.40;78.60;;;;;;5093530;28;20044;-91
2021/08/25 01:15:43;;;;;;;4.97;3.30;;;16.40;79.10;;;;;;5094383;28;20062;-89
2021/08/25 01:18:16;;;;;;;8.52;3.03;;;16.40;79.40;;;;;;5094180;28;20028;-91
2021/08/25 01:20:48;;;;;;;6.20;2.60;;;16.40;78.90;;;;;;5075524;28;20055;-91
2021/08/25 01:23:20;;;;;;;9.75;3.08;;;16.40;79.50;;;;;;5075834;28;20098;-88
2021/08/25 01:25:47;;;;;;;7.82;3.10;;;16.50;80.00;;;;;;5072692;28;20028;-88
2021/08/25 01:28:18;;;;;;;9.32;3.30;;;16.40;79.30;;;;;;5074100;28;20044;-88
2021/08/25 01:30:45;;;;;;;5.70;3.22;;;16.40;78.80;;;;;;5074373;28;20020;-91
2021/08/25 01:33:26;;;;;;;5.72;3.10;;;16.40;78.90;;;;;;5075075;28;20024;-91
2021/08/25 01:35:52;;;;;;;5.00;2.72;;;16.30;78.40;;;;;;5074256;28;20393;-91
2021/08/25 01:38:49;;;;;;;8.25;3.08;;;16.30;79.30;;;;;;5075508;28;20027;-92
2021/08/25 01:41:27;;;;;;;6.95;3.38;;;16.30;78.70;;;;;;5074881;28;20630;-92
2021/08/25 01:43:57;;;;;;;5.85;2.97;;;16.30;79.20;;;;;;5075066;28;20477;-92
2021/08/25 01:46:31;;;;;;;7.78;3.15;;;16.30;79.70;;;;;;5073546;28;20028;-90
2021/08/25 01:48:58;;;;;;;9.35;3.30;;;16.20;79.60;;;;;;5075497;28;20037;-89
2021/08/25 01:51:27;;;;;;;6.25;3.40;;;16.20;79.80;;;;;;5074109;28;20017;-89
2021/08/25 01:53:54;;;;;;;5.43;3.10;;;16.20;80.10;;;;;;5073049;28;20078;-89
2021/08/25 01:56:19;;;;;;;7.72;3.35;;;16.10;80.20;;;;;;5074692;28;20018;-89
2021/08/25 01:58:45;;;;;;;5.60;3.20;;;16.10;80.30;;;;;;5073920;28;20035;-86
2021/08/25 02:01:11;;;;;;;6.70;3.15;;;16.10;80.60;;;;;;5071427;28;20027;-89
2021/08/25 02:03:36;;;;;;;5.70;3.15;;;16.10;80.40;;;;;;5073589;28;20509;-89
2021/08/25 02:06:02;;;;;;;6.80;3.20;;;16.10;80.10;;;;;;5072108;28;20016;-88
2021/08/25 02:08:28;;;;;;;7.68;3.40;;;16.00;80.20;;;;;;5072462;28;20037;-88
2021/08/25 02:10:53;;;;;;;5.90;2.72;;;16.00;80.90;;;;;;5067798;28;20064;-88
2021/08/25 02:13:19;;;;;;;5.18;2.88;;;16.00;80.60;;;;;;5071943;28;20056;-87
2021/08/25 02:15:45;;;;;;;7.05;3.17;;;15.90;80.50;;;;;;5071872;28;20070;-89
2021/08/25 02:18:10;;;;;;;8.23;3.65;;;15.90;81.20;;;;;;5073235;28;20029;-89
2021/08/25 02:20:36;;;;;;;9.32;3.50;;;15.90;80.80;;;;;;5072417;28;20044;-89
2021/08/25 02:23:02;;;;;;;7.10;3.40;;;15.90;80.70;;;;;;5072402;28;20032;-88
2021/08/25 02:25:27;;;;;;;7.95;3.40;;;15.90;81.20;;;;;;5073333;28;20024;-89
2021/08/25 02:27:53;;;;;;;6.30;3.28;;;15.80;81.90;;;;;;5073810;28;20065;-90
2021/08/25 02:30:18;;;;;;;7.15;3.35;;;15.70;81.20;;;;;;5073854;28;20017;-87
2021/08/25 02:32:44;;;;;;;5.03;3.00;;;15.80;81.90;;;;;;5072391;28;20196;-90
2021/08/25 02:35:11;;;;;;;5.38;3.00;;;15.70;81.10;;;;;;5074205;28;20478;-88
2021/08/25 02:37:36;;;;;;;5.97;3.10;;;15.70;80.80;;;;;;5071991;28;20025;-90
2021/08/25 02:40:08;;;;;;;8.07;3.05;;;15.70;81.50;;;;;;5072720;28;20043;-90
2021/08/25 02:42:34;;;;;;;6.45;3.50;;;15.70;81.00;;;;;;5062862;28;20121;-90
2021/08/25 02:45:00;;;;;;;6.75;3.13;;;15.70;81.40;;;;;;5071441;28;20139;-90
2021/08/25 02:47:25;;;;;;;5.38;2.90;;;15.60;81.60;;;;;;5072778;28;20028;-91
2021/08/25 02:49:51;;;;;;;7.40;3.63;;;15.70;81.30;;;;;;5073689;28;20032;-89
2021/08/25 02:52:16;;;;;;;6.15;3.35;;;15.60;81.30;;;;;;5073179;28;20031;-93
2021/08/25 02:54:42;;;;;;;6.70;3.50;;;15.60;81.30;;;;;;5072022;28;20021;-92
2021/08/25 02:57:08;;;;;;;5.95;3.17;;;15.60;81.70;;;;;;5072565;28;20031;-92
2021/08/25 02:59:33;;;;;;;5.47;3.20;;;15.60;81.50;;;;;;5073723;28;20082;-92
2021/08/25 03:01:59;;;;;;;6.38;2.95;;;15.50;81.30;;;;;;5072233;28;20029;-93
2021/08/25 03:04:24;;;;;;;6.30;3.30;;;15.50;80.90;;;;;;5071992;28;20396;-92
2021/08/25 03:06:50;;;;;;;6.65;3.10;;;15.50;81.40;;;;;;5071835;28;20024;-91
2021/08/25 03:09:16;;;;;;;6.47;3.25;;;15.50;82.00;;;;;;5073347;28;20477;-92
2021/08/25 03:11:41;;;;;;;8.82;3.85;;;15.50;81.20;;;;;;5072960;28;20024;-90
2021/08/25 03:14:07;;;;;;;6.03;3.00;;;15.40;80.70;;;;;;5073477;28;20511;-91
2021/08/25 03:16:32;;;;;;;5.13;3.00;;;15.40;81.20;;;;;;5071169;28;20037;-90
2021/08/25 03:18:58;;;;;;;5.78;3.15;;;15.40;81.00;;;;;;5070969;28;20040;-90
2021/08/25 03:21:23;;;;;;;4.55;2.92;;;15.40;81.20;;;;;;5071531;28;20029;-90
2021/08/25 03:23:49;;;;;;;5.28;3.40;;;15.40;81.50;;;;;;5071747;28;20453;-90
2021/08/25 03:26:16;;;;;;;6.53;3.22;;;15.50;81.40;;;;;;5073316;28;20029;-90
2021/08/25 03:28:41;;;;;;;5.50;3.08;;;15.50;81.60;;;;;;5072235;28;20044;-89
2021/08/25 03:31:07;;;;;;;6.38;3.20;;;15.50;81.10;;;;;;5072034;28;20067;-89
2021/08/25 03:33:33;;;;;;;9.05;3.30;;;15.50;81.20;;;;;;5070763;28;20052;-89
2021/08/25 03:35:58;;;;;;;7.20;3.60;;;15.50;80.70;;;;;;5071080;28;20033;-89
2021/08/25 03:38:24;;;;;;;5.28;3.35;;;15.50;80.70;;;;;;5071503;28;20035;-88
2021/08/25 03:40:49;;;;;;;7.50;3.58;;;15.40;81.00;;;;;;5071021;28;20040;-89
2021/08/25 03:43:15;;;;;;;8.23;3.78;;;15.40;81.10;;;;;;5070566;28;20040;-90
2021/08/25 03:45:41;;;;;;;6.50;3.10;;;15.40;80.90;;;;;;5070264;28;20054;-88
2021/08/25 03:48:06;;;;;;;6.22;2.85;;;15.40;80.50;;;;;;5072030;28;20493;-88
2021/08/25 03:50:32;;;;;;;5.88;3.00;;;15.40;80.40;;;;;;5071265;28;20496;-90
2021/08/25 03:52:57;;;;;;;6.22;3.40;;;15.40;81.00;;;;;;5070679;28;20036;-90
2021/08/25 03:55:23;;;;;;;5.88;3.35;;;15.40;81.00;;;;;;5072004;28;20067;-90
2021/08/25 03:57:49;;;;;;;5.53;3.22;;;15.40;80.70;;;;;;5081848;28;20510;-90
2021/08/25 04:00:15;;;;;;;6.18;3.75;;;15.30;80.80;;;;;;5072159;28;20028;-92
2021/08/25 04:02:41;;;;;;;7.18;2.92;;;15.30;80.60;;;;;;5072014;28;20032;-91
2021/08/25 04:05:07;;;;;;;5.55;2.85;;;15.30;80.50;;;;;;5071862;28;20044;-91
2021/08/25 04:07:33;;;;;;;6.05;3.30;;;15.30;80.50;;;;;;5070449;28;20036;-92
2021/08/25 04:09:59;;;;;;;6.43;3.60;;;15.30;80.60;;;;;;5070430;28;20059;-92
2021/08/25 04:12:24;;;;;;;6.07;3.28;;;15.30;80.80;;;;;;5071908;28;20496;-93
2021/08/25 04:14:50;;;;;;;6.40;3.22;;;15.20;81.20;;;;;;5072104;28;20036;-93
2021/08/25 04:17:16;;;;;;;7.10;3.38;;;15.20;80.50;;;;;;5071182;28;20048;-91
2021/08/25 04:19:41;;;;;;;6.88;3.60;;;15.20;81.30;;;;;;5092267;28;20118;-89
2021/08/25 04:22:08;;;;;;;6.00;3.33;;;15.20;81.50;;;;;;5112667;28;20047;-90
2021/08/25 04:24:36;;;;;;;6.70;3.78;;;15.10;81.20;;;;;;5112776;28;20445;-91
2021/08/25 04:27:02;;;;;;;5.45;3.08;;;15.10;81.00;;;;;;5093996;28;20028;-90
2021/08/25 04:29:28;;;;;;;6.55;3.53;;;15.10;81.60;;;;;;5094648;28;20496;-91
2021/08/25 04:31:54;;;;;;;8.50;3.60;;;15.10;81.10;;;;;;5106279;28;20035;-90
2021/08/25 04:34:19;;;;;;;6.65;3.30;;;15.20;81.30;;;;;;5112489;28;20035;-89
2021/08/25 04:36:45;;;;;;;7.18;3.50;;;15.20;81.00;;;;;;5112461;28;20382;-91
2021/08/25 04:39:10;;;;;;;5.78;3.67;;;15.00;81.40;;;;;;5095033;28;20026;-90
2021/08/25 04:41:36;;;;;;;7.00;3.42;;;15.10;81.60;;;;;;5094548;28;20122;-90
2021/08/25 04:44:02;;;;;;;8.73;3.65;;;15.00;81.60;;;;;;5112576;28;20076;-89
2021/08/25 04:46:27;;;;;;;7.80;3.80;;;15.00;81.20;;;;;;5111853;28;20040;-89
2021/08/25 04:48:53;;;;;;;5.90;3.72;;;15.00;81.80;;;;;;5093224;28;20414;-89
2021/08/25 04:51:18;;;;;;;8.43;4.00;;;14.90;81.60;;;;;;5112034;28;20065;-89
2021/08/25 04:53:44;;;;;;;5.07;3.30;;;14.90;81.70;;;;;;5111955;28;20796;-89
2021/08/25 04:56:09;;;;;;;5.68;3.55;;;14.90;82.00;;;;;;5112115;28;20084;-89
2021/08/25 04:58:35;;;;;;;7.60;3.60;;;14.90;81.70;;;;;;5111120;28;20549;-89
2021/08/25 05:01:04;;;;;;;4.82;3.28;;;15.00;81.80;;;;;;5092911;28;20030;-90
2021/08/25 05:03:30;;;;;;;7.10;3.72;;;14.90;81.20;;;;;;5112268;28;20030;-90
2021/08/25 05:05:56;;;;;;;6.28;3.63;;;14.90;81.60;;;;;;5112133;28;20016;-90
2021/08/25 05:08:22;;;;;;;6.72;3.38;;;15.00;81.40;;;;;;5112804;28;20027;-90
2021/08/25 05:10:49;;;;;;;7.55;4.07;;;15.00;81.40;;;;;;5117531;28;20027;-92
2021/08/25 05:13:14;;;;;;;7.85;3.78;;;14.90;82.00;;;;;;5097795;28;20028;-91
2021/08/25 05:15:44;;;;;;;6.65;3.38;;;15.00;81.50;;;;;;5115122;28;20035;-87
2021/08/25 05:18:10;;;;;;;5.88;3.28;;;14.90;82.50;;;;;;5112542;28;20031;-87
2021/08/25 05:20:36;;;;;;;6.47;3.50;;;14.90;81.60;;;;;;5096594;28;20051;-87
2021/08/25 05:23:01;;;;;;;6.75;3.50;;;14.90;82.70;;;;;;5115451;28;20030;-90
2021/08/25 05:25:27;;;;;;;5.75;3.60;;;14.90;81.80;;;;;;5096982;28;20164;-92
2021/08/25 05:27:52;;;;;;;6.03;3.65;;;14.90;81.70;;;;;;5115883;28;20096;-90
2021/08/25 05:30:18;;;;;;;5.38;3.55;;;14.90;81.40;;;;;;5115857;28;20031;-93
2021/08/25 05:32:45;;;;;;;7.70;3.50;;;14.90;81.90;;;;;;5127451;27;20040;-89
2021/08/25 05:35:11;;;;;;;7.78;3.45;;;14.90;81.70;;;;;;5115694;28;20032;-88
2021/08/25 05:37:36;;;;;;;8.15;3.72;;;14.90;81.50;;;;;;5115226;28;20039;-89
2021/08/25 05:40:03;;;;;;;6.82;3.38;;;14.90;81.90;;;;;;5114849;28;20395;-88
2021/08/25 05:42:28;;;;;;;5.80;3.90;;;14.90;81.80;;;;;;5114996;28;20065;-89
2021/08/25 05:44:54;;;;;;;6.93;3.58;;;14.90;81.70;;;;;;5115035;28;20031;-89
2021/08/25 05:47:19;;;;;;;7.28;3.85;;;14.90;81.50;;;;;;5097308;28;20027;-89
2021/08/25 05:49:45;;;;;;;6.35;3.88;;;14.90;81.50;;;;;;5114556;28;20040;-90
2021/08/25 05:52:11;;;;;;;5.07;3.35;;;15.00;83.00;;;;;;5096496;28;20114;-89
2021/08/25 05:54:36;;;;;;;6.55;3.75;;;15.00;81.90;;;;;;5114930;28;20030;-88
2021/08/25 05:57:02;;;;;;;7.35;4.13;;;15.00;81.90;;;;;;5115276;28;20495;-88
2021/08/25 05:59:28;;;;;;;4.80;3.40;;;15.00;81.90;;;;;;5097344;28;20034;-90
2021/08/25 06:01:54;;;;;;;8.73;3.70;;;15.00;82.00;;;;;;5115300;28;20106;-90
2021/08/25 06:04:19;;;;;;;7.30;3.53;;;15.00;82.10;;;;;;5097159;28;20116;-90
2021/08/25 06:06:45;;;;;;;6.32;3.65;;;15.00;82.00;;;;;;5115803;28;20030;-92
2021/08/25 06:09:11;;;;;;;6.07;4.05;;;15.10;82.20;;;;;;5114100;27;21298;-91
2021/08/25 06:11:38;;;;;;;9.05;3.75;;;15.10;82.10;;;;;;5122558;27;20038;-88
2021/08/25 06:14:03;;;;;;;5.50;3.53;;;15.20;82.00;;;;;;5116598;28;20675;-88
2021/08/25 06:16:29;;;;;;;5.82;3.53;;;15.20;82.00;;;;;;5092519;28;20032;-86
2021/08/25 06:18:55;;;;;;;7.90;3.65;;;15.20;82.90;;;;;;5108364;28;20044;-89
2021/08/25 06:21:21;;;;;;;4.47;3.30;;;15.20;81.90;;;;;;5092141;27;20023;-87
2021/08/25 06:23:46;;;;;;;5.78;3.75;;;15.30;82.00;;;;;;5115104;27;20077;-92
2021/08/25 06:26:12;;;;;;;6.32;3.30;;;15.30;81.70;;;;;;5114448;28;20107;-89
2021/08/25 06:28:38;;;;;;;8.05;3.70;;;15.20;81.60;;;;;;5095561;28;20109;-92
2021/08/25 06:31:03;;;;;;;6.65;4.07;;;15.30;82.00;;;;;;5113851;28;20426;-85
2021/08/25 06:33:29;;;;;;;6.38;4.03;;;15.20;81.70;;;;;;5112946;28;20027;-83
2021/08/25 06:35:55;;;;;;;8.00;4.28;;;15.30;81.90;;;;;;5115647;28;20499;-86
2021/08/25 06:38:20;;;;;;;7.13;3.88;;;15.30;81.90;;;;;;5112212;28;20035;-85
2021/08/25 06:40:46;;;;;;;5.65;3.80;;;15.40;81.70;;;;;;5113098;28;20028;-87
2021/08/25 06:43:12;;;;;;;6.85;4.10;;;15.40;81.90;;;;;;5113526;28;20032;-87
2021/08/25 06:45:37;;;;;;;5.78;3.50;;;15.40;82.00;;;;;;5114038;28;20399;-87
2021/08/25 06:48:04;;;;;;;6.07;4.03;;;15.50;82.00;;;;;;5113228;28;20039;-87
2021/08/25 06:50:29;;;;;;;6.93;4.03;;;15.50;81.70;;;;;;5113287;28;20020;-85
2021/08/25 06:52:55;;;;;;;7.05;3.53;;;15.40;81.60;;;;;;5113083;28;20396;-86
2021/08/25 06:55:21;;;;;;;7.72;3.90;;;15.50;81.90;;;;;;5111265;28;20112;-82
2021/08/25 06:57:46;;;;;;;7.80;4.07;;;15.50;81.70;;;;;;5105225;28;20063;-82
2021/08/25 07:00:12;;;;;;;7.07;4.00;;;15.60;81.70;;;;;;5113025;28;20040;-84
2021/08/25 07:02:38;;;;;;;6.35;3.78;;;15.60;81.70;;;;;;5113418;28;20027;-87
2021/08/25 07:05:05;;;;;;;6.32;3.83;;;15.60;81.60;;;;;;5113385;28;20543;-84
2021/08/25 07:07:32;;;;;;;6.60;4.15;;;15.60;81.50;;;;;;5112548;28;20039;-84
2021/08/25 07:09:57;;;;;;;7.05;3.70;;;15.60;81.50;;;;;;5113112;28;20052;-84
2021/08/25 07:12:23;;;;;;;5.45;3.95;;;15.70;81.80;;;;;;5095726;28;20030;-83
2021/08/25 07:14:49;;;;;;;6.68;3.90;;;15.70;81.70;;;;;;5113433;28;20067;-88
2021/08/25 07:17:15;;;;;;;6.43;3.80;;;15.80;81.60;;;;;;5113515;28;20012;-84
2021/08/25 07:19:41;;;;;;;6.05;3.85;;;15.80;81.60;;;;;;5112888;28;20040;-84
2021/08/25 07:22:08;;;;;;;6.07;3.63;;;15.90;81.30;;;;;;5112007;28;20024;-85
2021/08/25 07:24:34;;;;;;;6.82;4.15;;;16.00;81.20;;;;;;5092879;28;20042;-82
2021/08/25 07:26:59;;;;;;;7.93;4.40;;;16.10;80.20;;;;;;5093826;28;20499;-82
2021/08/25 07:29:25;;;;;;;7.82;4.25;;;16.10;80.10;;;;;;5094176;28;20038;-82
2021/08/25 07:31:51;;;;;;;7.97;4.28;;;16.30;80.10;;;;;;5120243;27;20020;-83
2021/08/25 07:34:16;;;;;;;7.57;3.97;;;16.30;79.60;;;;;;5112171;28;20027;-82
2021/08/25 07:36:42;;;;;;;6.75;3.75;;;16.30;79.60;;;;;;5111425;28;20416;-83
2021/08/25 07:39:08;;;;;;;8.88;4.32;;;16.40;79.70;;;;;;5112249;28;20084;-84
2021/08/25 07:41:33;;;;;;;7.30;4.05;;;16.50;79.50;;;;;;5093853;28;20035;-83
2021/08/25 07:43:59;;;;;;;8.02;4.30;;;16.50;79.20;;;;;;5094048;28;20498;-83
2021/08/25 07:46:32;;;;;;;7.80;4.55;;;16.60;78.90;;;;;;5111846;28;20023;-83
2021/08/25 07:49:05;;;;;;;6.55;4.03;;;16.60;78.30;;;;;;5093265;28;20043;-83
2021/08/25 07:51:31;;;;;;;5.80;4.20;;;16.60;79.00;;;;;;5092952;28;20032;-83
2021/08/25 07:53:57;;;;;;;8.32;4.53;;;16.70;78.70;;;;;;5111589;28;20042;-82
2021/08/25 07:56:22;;;;;;;6.65;4.60;;;16.70;77.90;;;;;;5113109;28;20035;-83
2021/08/25 07:58:48;;;;;;;5.40;4.25;;;16.70;78.20;;;;;;5112240;28;20024;-82
2021/08/25 08:01:14;;;;;;;7.75;4.38;;;16.80;78.40;;;;;;5112217;28;20081;-82
2021/08/25 08:03:40;;;;;;;8.13;4.20;;;16.90;77.80;;;;;;5093022;28;20066;-82
2021/08/25 08:06:06;;;;;;;7.03;4.53;;;16.90;77.90;;;;;;5110478;28;20023;-82
2021/08/25 08:08:31;;;;;;;8.65;4.70;;;17.00;77.60;;;;;;5110817;28;20395;-83
2021/08/25 08:10:57;;;;;;;7.50;4.57;;;17.00;77.30;;;;;;5093068;28;20019;-82
2021/08/25 08:13:23;;;;;;;6.30;3.97;;;17.00;77.50;;;;;;5092450;28;20024;-82
2021/08/25 08:15:48;;;;;;;8.55;4.50;;;17.00;77.30;;;;;;5110702;28;20462;-82
2021/08/25 08:18:20;;;;;;;6.03;3.70;;;17.10;77.80;;;;;;5092433;28;20032;-79
2021/08/25 08:20:47;;;;;;;9.68;5.13;;;17.20;77.70;;;;;;5110310;28;20540;-82
2021/08/25 08:23:13;;;;;;;7.20;4.40;;;17.30;76.80;;;;;;5111217;28;20051;-84
2021/08/25 08:25:38;;;;;;;7.93;4.78;;;17.30;77.00;;;;;;5112041;28;20120;-83
2021/08/25 08:28:06;;;;;;;6.57;4.60;;;17.30;77.10;;;;;;5110988;28;20032;-82
2021/08/25 08:30:31;;;;;;;8.38;4.43;;;17.40;76.80;;;;;;5110340;28;20035;-82
2021/08/25 08:32:58;;;;;;;7.32;4.13;;;17.40;76.50;;;;;;5110327;28;20046;-81
2021/08/25 08:35:24;;;;;;;6.05;3.88;;;17.50;76.60;;;;;;5110696;28;20110;-82
2021/08/25 08:37:50;;;;;;;6.20;4.50;;;17.50;76.80;;;;;;5110725;28;20095;-82
2021/08/25 08:40:15;;;;;;;8.00;4.93;;;17.60;76.40;;;;;;5110484;28;20453;-83
2021/08/25 08:42:41;;;;;;;6.90;4.75;;;17.70;76.50;;;;;;5088962;28;20055;-82
2021/08/25 08:45:10;;;;;;;6.53;4.60;;;17.70;75.50;;;;;;5113203;28;20035;-82
2021/08/25 08:47:36;;;;;;;7.45;4.95;;;17.80;75.50;;;;;;5114520;28;20114;-83
2021/08/25 08:50:03;;;;;;;7.85;4.55;;;17.80;75.00;;;;;;5114680;28;20496;-83
2021/08/25 08:52:29;;;;;;;7.57;4.22;;;17.90;75.30;;;;;;5095495;28;20031;-82
2021/08/25 08:54:57;;;;;;;6.80;4.75;;;18.00;76.20;;;;;;5114244;28;20035;-82
2021/08/25 08:57:23;;;;;;;7.55;5.07;;;18.00;76.00;;;;;;5111834;28;20016;-82
2021/08/25 08:59:49;;;;;;;6.68;4.38;;;18.10;74.80;;;;;;5114309;28;20091;-83
2021/08/25 09:02:44;;;;;;;5.80;4.25;;;18.10;74.40;;;;;;5096567;28;20069;-82
2021/08/25 09:05:20;;;;;;;7.15;4.10;;;18.20;75.20;;;;;;5113296;28;20023;-82
2021/08/25 09:07:58;;;;;;;7.78;4.07;;;18.30;74.40;;;;;;5113583;28;20035;-82
2021/08/25 09:10:29;;;;;;;6.38;4.03;;;18.40;74.70;;;;;;5093585;28;20148;-81
2021/08/25 09:13:03;;;;;;;7.13;4.45;;;18.50;74.30;;;;;;5096951;28;20028;-83
2021/08/25 09:15:35;;;;;;;6.07;4.65;;;18.60;73.70;;;;;;5115347;28;20039;-85
2021/08/25 09:18:09;;;;;;;6.53;4.28;;;18.60;73.20;;;;;;5114983;28;20015;-86
2021/08/25 09:20:41;;;;;;;8.02;4.90;;;18.70;73.70;;;;;;5097231;28;20047;-85
2021/08/25 09:23:13;;;;;;;5.50;3.80;;;18.80;72.30;;;;;;5117386;27;20072;-85
2021/08/25 09:25:39;;;;;;;8.07;4.40;;;18.80;72.30;;;;;;5095948;28;20415;-85
2021/08/25 09:28:07;;;;;;;5.85;3.65;;;18.90;71.60;;;;;;5114894;28;20118;-84
2021/08/25 09:30:52;;;;;;;6.05;3.70;;;18.90;71.50;;;;;;5115043;28;20077;-85
2021/08/25 09:33:19;;;;;;;6.03;4.10;;;18.90;72.50;;;;;;5114345;28;20022;-83
2021/08/25 09:35:45;;;;;;;5.50;3.53;;;19.10;71.80;;;;;;5114483;28;20040;-83
2021/08/25 09:38:22;;;;;;;4.43;3.28;;;19.10;72.80;;;;;;5115055;28;20488;-84
2021/08/25 09:40:50;;;;;;;6.35;3.80;;;19.20;71.40;;;;;;5114152;28;20031;-84
2021/08/25 09:43:36;;;;;;;5.78;4.07;;;19.30;70.20;;;;;;5095209;28;20023;-85
2021/08/25 09:46:26;;;;;;;5.72;3.03;;;19.40;69.90;;;;;;5112826;28;20030;-84
2021/08/25 09:48:54;;;;;;;4.55;3.33;;;19.50;70.00;;;;;;5098441;28;20055;-83
2021/08/25 09:51:25;;;;;;;4.18;3.15;;;19.50;69.70;;;;;;5114349;28;20065;-83
2021/08/25 09:54:03;;;;;;;4.85;3.35;;;19.50;69.30;;;;;;5114419;28;20116;-83
2021/08/25 09:56:32;;;;;;;5.80;3.03;;;19.60;67.70;;;;;;5111914;28;20115;-83
2021/08/25 09:58:58;;;;;;;7.97;3.03;;;19.70;67.30;;;;;;5113935;28;20487;-83
2021/08/25 10:01:24;;;;;;;4.72;3.10;;;19.70;67.40;;;;;;5114045;28;20031;-84
2021/08/25 10:03:51;;;;;;;3.78;2.65;;;19.80;67.20;;;;;;5114259;28;20028;-84
2021/08/25 10:06:18;;;;;;;3.75;2.65;;;19.80;67.30;;;;;;5113846;28;20122;-83
2021/08/25 10:08:44;;;;;;;4.10;2.70;;;19.80;66.90;;;;;;5095850;28;20118;-84
2021/08/25 10:11:11;;;;;;;3.88;2.85;;;19.90;67.60;;;;;;5096792;28;20024;-85
2021/08/25 10:13:37;;;;;;;7.65;3.10;;;19.90;67.00;;;;;;5113766;28;20027;-86
2021/08/25 10:16:03;;;;;;;4.40;3.30;;;20.00;65.60;;;;;;5113732;28;20023;-87
2021/08/25 10:18:37;;;;;;;4.57;3.35;;;20.00;66.20;;;;;;5113587;28;20030;-87
2021/08/25 10:21:23;;;;;;;4.50;3.67;;;20.00;63.30;;;;;;5114259;28;20028;-86
2021/08/25 10:23:59;;;;;;;4.43;3.15;;;20.10;64.10;;;;;;5114012;28;20030;-87
2021/08/25 10:26:26;;;;;;;3.97;3.20;;;20.10;65.50;;;;;;5111119;28;20077;-86
2021/08/25 10:29:11;;;;;;;5.85;3.08;;;20.20;65.30;;;;;;5114123;28;20035;-89
2021/08/25 10:31:49;;;;;;;3.85;3.00;;;20.20;64.70;;;;;;5095451;28;20083;-88
2021/08/25 10:34:27;;;;;;;4.10;3.10;;;20.30;65.10;;;;;;5095249;28;20028;-85
2021/08/25 10:37:12;;;;;;;3.75;2.90;;;20.30;64.70;;;;;;5105854;28;20026;-88
2021/08/25 10:39:42;;;;;;;4.03;2.72;;;20.40;65.20;;;;;;5093240;28;20024;-87
2021/08/25 10:42:09;;;;;;;5.60;3.30;;;20.50;63.10;;;;;;5094953;28;20500;-87
2021/08/25 10:44:38;;;;;;;5.43;3.20;;;20.50;63.30;;;;;;5113002;28;20016;-87
2021/08/25 10:47:08;;;;;;;4.13;2.90;;;20.60;62.50;;;;;;5096971;28;20045;-87
2021/08/25 10:49:35;;;;;;;4.88;2.83;;;20.60;62.50;;;;;;5113122;28;20036;-86
2021/08/25 10:52:15;;;;;;;3.50;2.70;;;20.60;61.00;;;;;;5094781;28;20020;-87
2021/08/25 10:54:50;;;;;;;4.25;2.85;;;20.70;62.70;;;;;;5092505;28;20027;-84
2021/08/25 10:57:17;;;;;;;3.75;2.47;;;20.80;60.00;;;;;;5094731;28;20027;-88
2021/08/25 10:59:43;;;;;;;3.78;2.58;;;20.70;60.00;;;;;;5112729;28;20028;-86
2021/08/25 11:02:10;;;;;;;3.50;2.60;;;20.80;58.90;;;;;;5113414;28;20026;-87
2021/08/25 11:04:35;;;;;;;3.50;2.35;;;20.80;60.10;;;;;;5094325;28;20031;-87
2021/08/25 11:07:05;;;;;;;4.07;2.33;;;20.80;59.90;;;;;;5093644;28;20020;-87
2021/08/25 11:09:36;;;;;;;3.20;2.58;;;20.80;61.00;;;;;;5094523;28;20571;-87
2021/08/25 11:12:08;;;;;;;3.95;2.40;;;20.90;60.20;;;;;;5110694;28;20023;-86
2021/08/25 11:14:38;;;;;;;3.70;2.67;;;20.90;60.10;;;;;;5094003;28;20024;-86
2021/08/25 11:17:10;;;;;;;2.80;1.90;;;21.00;59.00;;;;;;5113124;28;20096;-86
2021/08/25 11:19:47;;;;;;;2.95;2.30;;;21.00;59.40;;;;;;5112465;28;20096;-86
2021/08/25 11:22:24;;;;;;;3.28;2.33;;;21.00;58.30;;;;;;5093888;28;20507;-86
2021/08/25 11:24:52;;;;;;;4.38;2.13;;;21.10;58.10;;;;;;5112357;28;20031;-84
2021/08/25 11:27:42;;;;;;;3.13;2.20;;;21.10;57.30;;;;;;5092203;28;20022;-84
2021/08/25 11:30:25;;;;;;;4.05;2.20;;;21.10;57.00;;;;;;5093513;28;20058;-84
2021/08/25 11:32:57;;;;;;;2.72;1.95;;;21.20;56.80;;;;;;5112338;28;20123;-86
2021/08/25 11:35:33;;;;;;;3.60;2.35;;;21.30;58.90;;;;;;5119082;27;20024;-87
2021/08/25 11:38:09;;;;;;;5.22;2.35;;;21.20;57.20;;;;;;5119396;27;20032;-87
2021/08/25 11:40:40;;;;;;;2.45;2.03;;;21.20;57.50;;;;;;5124266;27;20054;-88
2021/08/25 11:43:34;;;;;;;5.10;2.38;;;21.40;55.90;;;;;;5111687;28;20496;-88
2021/08/25 11:46:00;;;;;;;3.65;2.65;;;21.40;57.30;;;;;;5088285;28;20055;-88
2021/08/25 11:48:30;;;;;;;4.43;2.60;;;21.40;53.90;;;;;;5092900;28;20035;-87
2021/08/25 11:50:58;;;;;;;4.57;2.40;;;21.40;55.40;;;;;;5091415;28;20024;-86
2021/08/25 11:53:29;;;;;;;4.07;2.28;;;21.50;54.70;;;;;;5111308;28;20019;-86
2021/08/25 11:55:57;;;;;;;4.30;2.22;;;21.50;55.90;;;;;;5111957;28;20058;-86
2021/08/25 11:58:33;;;;;;;4.05;2.53;;;21.50;55.80;;;;;;5111706;28;20016;-86
2021/08/25 12:01:00;;;;;;;3.70;2.50;;;21.50;55.80;;;;;;5091609;28;20477;-85
2021/08/25 12:03:43;;;;;;;3.83;2.50;;;21.50;55.80;;;;;;5111916;28;20023;-86
2021/08/25 12:06:10;;;;;;;3.85;2.65;;;21.50;56.40;;;;;;5111339;28;20080;-86
2021/08/25 12:08:45;;;;;;;4.78;2.38;;;21.50;56.20;;;;;;5111901;28;20036;-86
2021/08/25 12:11:12;;;;;;;3.75;2.72;;;21.50;55.90;;;;;;5110378;28;20020;-86
2021/08/25 12:13:44;;;;;;;3.70;2.40;;;21.50;54.90;;;;;;5092354;28;20072;-85
2021/08/25 12:16:33;;;;;;;5.05;2.25;;;21.60;55.90;;;;;;5111283;28;20026;-85
2021/08/25 12:19:03;;;;;;;5.30;2.58;;;21.80;56.00;;;;;;5109271;28;20046;-86
2021/08/25 12:21:31;;;;;;;5.43;2.72;;;21.80;53.90;;;;;;5092319;28;20034;-88
2021/08/25 12:24:07;;;;;;;3.50;2.28;;;21.80;53.70;;;;;;5094148;28;20492;-88
2021/08/25 12:26:35;;;;;;;4.45;2.30;;;21.70;54.20;;;;;;5109289;28;20098;-83
2021/08/25 12:29:02;;;;;;;4.78;2.65;;;21.80;55.20;;;;;;5112431;28;20040;-91
2021/08/25 12:31:30;;;;;;;4.47;2.78;;;21.80;54.20;;;;;;5112073;28;20036;-88
2021/08/25 12:34:14;;;;;;;5.80;2.58;;;21.80;52.40;;;;;;5112190;28;20491;-89
2021/08/25 12:36:52;;;;;;;4.38;2.70;;;21.90;53.30;;;;;;5120196;28;20031;-90
2021/08/25 12:39:22;;;;;;;4.85;2.63;;;21.90;54.40;;;;;;5110014;28;20446;-89
2021/08/25 12:41:48;;;;;;;4.07;2.72;;;22.00;52.80;;;;;;5093861;28;20146;-89
2021/08/25 12:44:15;;;;;;;4.43;2.40;;;22.10;51.90;;;;;;5118261;27;20523;-88
2021/08/25 12:46:54;;;;;;;5.10;2.40;;;22.00;52.30;;;;;;5092837;28;20019;-89
2021/08/25 12:49:24;;;;;;;4.78;2.33;;;22.10;53.80;;;;;;5110037;28;20078;-87
2021/08/25 12:51:51;;;;;;;4.78;2.70;;;22.10;53.20;;;;;;5111489;28;20031;-86
2021/08/25 12:54:17;;;;;;;4.50;3.00;;;22.10;51.90;;;;;;5111449;28;20032;-88